createdAt,value
2017-09-14T00:02:11.928Z,16.30
2017-09-14T00:07:16.408Z,16.40
2017-09-14T00:12:19.306Z,16.40
2017-09-14T00:17:23.037Z,16.70
2017-09-14T00:22:26.755Z,16.70
2017-09-14T00:27:29.787Z,16.70
2017-09-14T00:32:33.720Z,16.80
2017-09-14T00:37:37.368Z,16.90
2017-09-14T00:42:40.441Z,17.00
2017-09-14T00:47:43.895Z,17.00
2017-09-14T00:52:47.280Z,17.10
2017-09-14T00:57:51.542Z,17.20
2017-09-14T01:02:54.642Z,17.20
2017-09-14T01:07:59.147Z,17.20
2017-09-14T01:13:03.526Z,17.30
2017-09-14T01:18:09.653Z,17.30
2017-09-14T01:23:12.386Z,17.40
2017-09-14T01:28:16.517Z,17.40
2017-09-14T01:33:20.372Z,17.50
2017-09-14T01:38:24.757Z,17.40
2017-09-14T01:43:27.495Z,17.50
2017-09-14T01:48:30.894Z,17.50
2017-09-14T01:53:35.163Z,17.50
2017-09-14T01:58:38.574Z,17.50
2017-09-14T02:03:41.602Z,17.60
2017-09-14T02:08:45.758Z,17.60
2017-09-14T02:13:48.706Z,17.60
2017-09-14T02:18:55.763Z,17.60
2017-09-14T02:24:00.083Z,17.60
2017-09-14T02:29:03.793Z,17.60
2017-09-14T02:34:06.799Z,17.60
2017-09-14T02:39:10.228Z,17.70
2017-09-14T02:44:15.286Z,17.70
2017-09-14T02:49:18.710Z,17.70
2017-09-14T02:54:22.248Z,17.70
2017-09-14T02:59:26.064Z,17.70
2017-09-14T03:04:29.842Z,17.70
2017-09-14T03:09:34.137Z,17.70
2017-09-14T03:14:37.026Z,17.70
2017-09-14T03:19:40.512Z,17.70
2017-09-14T03:24:43.397Z,17.70
2017-09-14T03:29:46.896Z,17.70
2017-09-14T03:34:49.971Z,17.70
2017-09-14T03:39:54.330Z,17.70
2017-09-14T03:50:04.770Z,17.70
2017-09-14T03:55:07.779Z,17.70
2017-09-14T04:00:10.599Z,17.70
2017-09-14T04:05:14.150Z,17.70
2017-09-14T04:10:17.216Z,17.60
2017-09-14T04:15:20.084Z,17.60
2017-09-14T04:20:22.745Z,17.60
2017-09-14T04:25:25.869Z,17.60
2017-09-14T04:30:29.432Z,17.60
2017-09-14T04:35:32.149Z,17.60
2017-09-14T04:40:35.554Z,17.60
2017-09-14T04:45:39.727Z,17.50
2017-09-14T04:50:43.446Z,17.40
2017-09-14T04:55:49.307Z,17.40
2017-09-14T05:00:54.441Z,17.40
2017-09-14T05:05:57.373Z,17.40
2017-09-14T05:11:00.726Z,17.40
2017-09-14T05:16:03.727Z,17.30
2017-09-14T05:21:06.387Z,17.30
2017-09-14T05:26:09.266Z,17.20
2017-09-14T05:31:12.101Z,17.10
2017-09-14T05:36:15.447Z,17.10
2017-09-14T05:41:18.868Z,17.00
2017-09-14T05:46:22.355Z,17.00
2017-09-14T05:51:25.052Z,16.90
2017-09-14T05:56:28.070Z,16.90
2017-09-14T06:01:30.714Z,16.90
2017-09-14T06:06:33.681Z,16.90
2017-09-14T06:17:04.698Z,16.70
2017-09-14T06:22:08.071Z,16.70
2017-09-14T06:27:11.641Z,16.60
2017-09-14T06:32:14.292Z,16.60
2017-09-14T06:37:17.175Z,16.60
2017-09-14T06:42:19.901Z,16.50
2017-09-14T06:47:23.494Z,16.40
2017-09-14T06:52:26.871Z,16.40
2017-09-14T06:57:29.540Z,16.30
2017-09-14T07:02:32.300Z,16.20
2017-09-14T07:07:35.951Z,16.10
2017-09-14T07:12:38.937Z,16.10
2017-09-14T07:17:42.413Z,16.00
2017-09-14T07:22:46.490Z,15.90
2017-09-14T07:27:49.499Z,15.80
2017-09-14T07:32:52.863Z,15.70
2017-09-14T07:37:55.530Z,15.70
2017-09-14T07:42:58.938Z,15.70
2017-09-14T07:48:01.829Z,15.60
2017-09-14T07:53:04.854Z,15.60
2017-09-14T07:58:08.286Z,15.50
2017-09-14T08:03:12.381Z,15.60
2017-09-14T08:08:15.091Z,15.60
2017-09-14T08:13:17.781Z,15.60
2017-09-14T08:18:22.149Z,15.70
2017-09-14T08:23:25.040Z,15.70
2017-09-14T08:28:28.351Z,16.00
2017-09-14T08:33:32.725Z,16.10
2017-09-14T08:38:35.334Z,16.40
2017-09-14T08:43:38.710Z,16.80
2017-09-14T08:48:43.182Z,16.80
2017-09-14T08:53:48.546Z,17.00
2017-09-14T08:58:52.777Z,17.00
2017-09-14T09:03:55.655Z,16.90
2017-09-14T09:08:58.556Z,16.90
2017-09-14T09:14:01.960Z,16.80
2017-09-14T09:19:04.826Z,16.70
2017-09-14T09:24:09.221Z,16.60
2017-09-14T09:29:12.799Z,16.50
2017-09-14T09:34:16.170Z,16.40
2017-09-14T09:39:19.549Z,16.30
2017-09-14T09:44:23.927Z,16.20
2017-09-14T09:49:27.386Z,16.10
2017-09-14T09:54:30.830Z,16.00
2017-09-14T09:59:33.816Z,16.00
2017-09-14T10:04:36.556Z,15.90
2017-09-14T10:09:40.969Z,15.90
2017-09-14T10:14:44.390Z,15.80
2017-09-14T10:19:47.043Z,15.80
2017-09-14T10:24:50.473Z,15.80
2017-09-14T10:29:53.073Z,15.80
2017-09-14T10:34:56.503Z,15.80
2017-09-14T10:40:02.747Z,15.70
2017-09-14T10:45:06.123Z,15.70
2017-09-14T10:50:10.437Z,15.60
2017-09-14T10:55:13.383Z,15.50
2017-09-14T11:00:17.626Z,15.50
2017-09-14T11:05:20.533Z,15.40
2017-09-14T11:10:23.937Z,15.40
2017-09-14T11:15:26.945Z,15.30
2017-09-14T11:20:29.690Z,15.30
2017-09-14T11:25:33.138Z,15.20
2017-09-14T11:30:36.047Z,15.20
2017-09-14T11:35:39.510Z,15.20
2017-09-14T11:40:42.492Z,15.10
2017-09-14T11:45:46.768Z,15.00
2017-09-14T11:50:50.962Z,15.00
2017-09-14T11:55:54.341Z,14.90
2017-09-14T12:00:57.312Z,14.80
2017-09-14T12:06:00.651Z,14.80
2017-09-14T12:11:04.882Z,14.70
2017-09-14T12:16:08.298Z,14.70
2017-09-14T12:21:12.514Z,14.50
2017-09-14T12:26:16.886Z,14.50
2017-09-14T12:31:22.967Z,14.50
2017-09-14T12:36:26.328Z,14.40
2017-09-14T12:41:30.638Z,14.40
2017-09-14T12:46:33.516Z,14.30
2017-09-14T12:51:36.527Z,14.20
2017-09-14T12:56:39.529Z,14.20
2017-09-14T13:01:43.871Z,14.10
2017-09-14T13:06:48.110Z,14.10
2017-09-14T13:11:52.402Z,14.10
2017-09-14T13:16:55.332Z,14.00
2017-09-14T13:21:58.003Z,14.00
2017-09-14T13:27:01.374Z,13.90
2017-09-14T13:32:05.674Z,13.90
2017-09-14T13:37:10.112Z,13.90
2017-09-14T13:42:14.458Z,13.80
2017-09-14T13:47:20.613Z,13.80
2017-09-14T13:52:24.084Z,13.70
2017-09-14T13:57:26.707Z,13.70
2017-09-14T14:02:29.651Z,13.60
2017-09-14T14:07:32.577Z,13.60
2017-09-14T14:17:42.788Z,13.50
2017-09-14T14:22:45.536Z,13.40
2017-09-14T14:27:50.584Z,13.20
2017-09-14T14:32:53.985Z,13.20
2017-09-14T14:37:56.889Z,13.20
2017-09-14T14:42:59.619Z,13.20
2017-09-14T14:48:03.932Z,13.20
2017-09-14T14:53:09.922Z,13.20
2017-09-14T14:58:13.569Z,13.10
2017-09-14T15:03:17.900Z,13.10
2017-09-14T15:08:21.322Z,13.10
2017-09-14T15:13:24.051Z,13.00
2017-09-14T15:18:27.584Z,13.00
2017-09-14T15:23:32.397Z,12.90
2017-09-14T15:28:36.717Z,12.90
2017-09-14T15:33:40.087Z,12.90
2017-09-14T15:38:48.695Z,12.80
2017-09-14T15:43:57.845Z,12.80
2017-09-14T15:49:06.521Z,12.80
2017-09-14T15:54:09.554Z,12.70
2017-09-14T15:59:12.450Z,12.70
2017-09-14T16:04:17.021Z,12.70
2017-09-14T16:09:20.441Z,12.60
2017-09-14T16:14:23.171Z,12.60
2017-09-14T16:19:26.573Z,12.60
2017-09-14T16:24:29.988Z,12.50
2017-09-14T16:29:33.399Z,12.50
2017-09-14T16:34:36.372Z,12.50
2017-09-14T16:39:39.408Z,12.50
2017-09-14T16:44:42.794Z,12.50
2017-09-14T16:49:46.513Z,12.50
2017-09-14T16:54:50.242Z,12.40
2017-09-14T16:59:56.434Z,12.40
2017-09-14T17:04:59.996Z,12.40
2017-09-14T17:10:03.426Z,12.40
2017-09-14T17:15:06.137Z,12.40
2017-09-14T17:20:10.438Z,12.40
2017-09-14T17:25:13.874Z,12.40
2017-09-14T17:30:17.325Z,12.40
2017-09-14T17:35:20.750Z,12.40
2017-09-14T17:40:23.723Z,12.30
2017-09-14T17:45:27.097Z,12.30
2017-09-14T17:50:29.798Z,12.30
2017-09-14T17:55:33.273Z,12.30
2017-09-14T18:00:36.816Z,12.30
2017-09-14T18:05:41.346Z,12.20
2017-09-14T18:10:44.026Z,12.20
2017-09-14T18:15:48.529Z,12.20
2017-09-14T18:20:51.270Z,12.10
2017-09-14T18:25:54.833Z,12.10
2017-09-14T18:30:59.063Z,12.10
2017-09-14T18:36:02.616Z,12.10
2017-09-14T18:41:07.115Z,12.00
2017-09-14T18:46:11.361Z,12.00
2017-09-14T18:51:16.416Z,12.00
2017-09-14T18:56:20.612Z,11.90
2017-09-14T19:01:24.119Z,11.90
2017-09-14T19:06:27.623Z,11.90
2017-09-14T19:11:32.431Z,11.80
2017-09-14T19:16:36.727Z,11.80
2017-09-14T19:21:40.270Z,11.80
2017-09-14T19:26:42.932Z,11.80
2017-09-14T19:31:46.548Z,11.70
2017-09-14T19:36:49.626Z,11.70
2017-09-14T19:41:52.684Z,11.70
2017-09-14T19:46:55.278Z,11.60
2017-09-14T19:51:59.618Z,11.60
2017-09-14T19:57:03.093Z,11.60
2017-09-14T20:02:07.404Z,11.50
2017-09-14T20:07:10.855Z,11.50
2017-09-14T20:12:14.419Z,11.50
2017-09-14T20:17:17.356Z,11.50
2017-09-14T20:22:24.406Z,11.50
2017-09-14T20:27:27.835Z,11.40
2017-09-14T20:32:30.555Z,11.40
2017-09-14T20:37:33.684Z,11.40
2017-09-14T20:42:36.772Z,11.40
2017-09-14T20:47:40.247Z,11.30
2017-09-14T20:52:42.981Z,11.30
2017-09-14T20:57:45.734Z,11.30
2017-09-14T21:02:49.186Z,11.30
2017-09-14T21:07:52.647Z,11.20
2017-09-14T21:12:55.641Z,11.20
2017-09-14T21:17:58.519Z,11.20
2017-09-14T21:23:05.511Z,11.20
2017-09-14T21:28:08.537Z,11.20
2017-09-14T21:33:11.750Z,11.20
2017-09-14T21:38:14.709Z,11.20
2017-09-14T21:43:18.965Z,11.20
2017-09-14T21:48:24.054Z,11.20
2017-09-14T21:53:27.095Z,11.20
2017-09-14T21:58:30.565Z,11.20
2017-09-14T22:03:34.785Z,11.20
2017-09-14T22:08:41.048Z,11.20
2017-09-14T22:13:43.768Z,11.20
2017-09-14T22:18:48.109Z,11.20
2017-09-14T22:23:51.530Z,11.20
2017-09-14T22:28:54.186Z,11.20
2017-09-14T22:33:59.189Z,11.20
2017-09-14T22:39:02.603Z,11.20
2017-09-14T22:44:06.060Z,11.20
2017-09-14T22:49:09.005Z,11.20
2017-09-14T22:54:11.686Z,11.20
2017-09-14T22:59:14.822Z,11.20
2017-09-14T23:04:17.518Z,11.20
2017-09-14T23:09:21.063Z,11.20
2017-09-14T23:14:24.160Z,11.20
2017-09-14T23:19:30.329Z,11.20
2017-09-14T23:24:33.941Z,11.20
2017-09-14T23:29:36.963Z,11.20
2017-09-14T23:34:41.368Z,11.20
2017-09-14T23:39:44.302Z,11.20
2017-09-14T23:44:48.664Z,11.20
2017-09-14T23:49:52.787Z,11.20
2017-09-14T23:54:56.215Z,11.20
2017-09-14T23:59:59.930Z,11.20
